Time;durP1;ratioP1;P1;durP2;ratioP2;P2;SDS_P1;SDS_P2;PMS_P1;PMS_P2;Temp;Humidity;BMP_temperature;BMP_pressure;BME280_temperature;BME280_humidity;BME280_pressure;Samples;Min_cycle;Max_cycle;Signal;HPM_P1;HPM_P2
2023/03/28 00:00:35;;;;;;;2.70;2.60;;;;;;;-0.78;100.00;102054.56;6146094;23;20069;-74
2023/03/28 00:03:02;;;;;;;2.60;2.50;;;;;;;-0.45;100.00;102119.56;6142752;23;20045;-76
2023/03/28 00:05:31;;;;;;;3.33;3.22;;;;;;;-0.37;100.00;102116.25;6155131;23;20059;-76
2023/03/28 00:07:58;;;;;;;2.50;2.40;;;;;;;-0.92;100.00;102041.44;6142861;23;20657;-75
2023/03/28 00:10:26;;;;;;;2.78;2.67;;;;;;;-1.07;100.00;102027.44;6150325;23;20036;-75
2023/03/28 00:12:53;;;;;;;2.60;2.50;;;;;;;-1.01;100.00;102047.31;6117648;23;20078;-76
2023/03/28 00:15:19;;;;;;;4.93;3.53;;;;;;;-1.09;100.00;102051.47;6131216;23;20035;-75
2023/03/28 00:17:46;;;;;;;2.30;2.20;;;;;;;-1.21;100.00;102034.94;6149733;23;20120;-75
2023/03/28 00:20:13;;;;;;;2.40;2.30;;;;;;;-1.33;100.00;102051.88;6113216;23;20159;-75
2023/03/28 00:22:39;;;;;;;2.67;2.58;;;;;;;-0.77;100.00;102123.31;6120302;23;20178;-76
2023/03/28 00:25:07;;;;;;;2.28;2.17;;;;;;;-1.21;100.00;102055.53;6142645;23;20107;-77
2023/03/28 00:27:34;;;;;;;2.88;2.78;;;;;;;-0.98;100.00;102104.06;6120118;23;20027;-75
2023/03/28 00:30:05;;;;;;;2.33;2.22;;;;;;;-0.74;100.00;102134.56;6150293;23;20340;-75
2023/03/28 00:32:32;;;;;;;2.33;2.22;;;;;;;-2.11;100.00;101915.72;6142688;23;20134;-77
2023/03/28 00:34:58;;;;;;;2.60;2.50;;;;;;;-1.17;100.00;102066.78;6112995;23;20744;-76
2023/03/28 00:37:25;;;;;;;2.97;2.88;;;;;;;-1.35;100.00;102040.69;6125857;23;20192;-74
2023/03/28 00:39:52;;;;;;;2.53;2.42;;;;;;;-2.18;100.00;101901.03;6115953;23;20357;-77
2023/03/28 00:42:21;;;;;;;2.30;2.20;;;;;;;-1.24;100.00;102070.09;6152504;23;20091;-75
2023/03/28 00:44:53;;;;;;;2.25;2.15;;;;;;;-0.73;100.00;102144.00;6140610;23;20017;-77
2023/03/28 00:47:35;;;;;;;5.40;2.80;;;;;;;-1.31;100.00;102053.63;6130315;23;20103;-75
2023/03/28 00:50:20;;;;;;;2.60;2.50;;;;;;;-0.74;100.00;102151.72;6141206;23;20100;-76
2023/03/28 00:53:07;;;;;;;2.92;2.83;;;;;;;-0.79;100.00;102138.75;6147610;23;20028;-76
2023/03/28 00:55:57;;;;;;;2.60;2.50;;;;;;;-1.40;100.00;102020.00;6144599;23;20513;-74
2023/03/28 00:58:28;;;;;;;2.40;2.30;;;;;;;-1.31;100.00;102042.47;6149946;23;20021;-75
2023/03/28 01:00:56;;;;;;;2.60;2.50;;;;;;;-1.16;100.00;102111.44;6119005;23;20025;-75
2023/03/28 01:03:29;;;;;;;3.45;3.33;;;;;;;-1.38;100.00;102059.53;6120211;23;20032;-74
2023/03/28 01:05:56;;;;;;;5.90;3.05;;;;;;;-0.85;100.00;102138.63;6148748;23;20073;-76
2023/03/28 01:08:27;;;;;;;2.70;2.60;;;;;;;-0.89;100.00;102140.28;6142767;23;20084;-75
2023/03/28 01:10:57;;;;;;;2.42;2.33;;;;;;;-1.89;100.00;101980.47;6158753;23;20235;-76
2023/03/28 01:13:27;;;;;;;4.10;3.10;;;;;;;-1.51;100.00;102029.22;6138567;23;20136;-77
2023/03/28 01:15:54;;;;;;;2.60;2.50;;;;;;;-1.83;100.00;101990.88;6149976;23;20048;-75
2023/03/28 01:18:22;;;;;;;2.40;2.30;;;;;;;-0.96;100.00;102137.56;6137161;23;20092;-74
2023/03/28 01:21:02;;;;;;;2.67;2.58;;;;;;;-0.99;100.00;102134.94;6146431;23;20068;-75
2023/03/28 01:23:52;;;;;;;2.60;2.50;;;;;;;-1.01;100.00;102140.06;6115315;23;20027;-76
2023/03/28 01:26:47;;;;;;;2.33;2.22;;;;;;;-2.29;100.00;101938.50;6146614;23;20085;-74
2023/03/28 01:29:59;;;;;;;2.40;2.30;;;;;;;-1.59;100.00;102046.25;6152230;23;20025;-77
2023/03/28 01:33:04;;;;;;;2.60;2.50;;;;;;;-1.12;100.00;102127.00;6143657;23;20048;-75
2023/03/28 01:35:57;;;;;;;2.60;2.50;;;;;;;-1.22;100.00;102130.22;6111381;23;20103;-75
2023/03/28 01:38:35;;;;;;;2.38;2.28;;;;;;;-1.29;100.00;102125.78;6128899;23;20653;-74
2023/03/28 01:41:22;;;;;;;2.42;2.33;;;;;;;-1.71;100.00;102059.72;6142281;23;20017;-77
2023/03/28 01:44:06;;;;;;;2.60;2.50;;;;;;;-1.62;100.00;102083.94;6144670;23;20028;-76
2023/03/28 01:46:41;;;;;;;2.40;2.30;;;;;;;-1.42;100.00;102117.81;6115267;23;20092;-77
2023/03/28 01:49:37;;;;;;;2.40;2.30;;;;;;;-1.47;100.00;102116.84;6151060;23;20510;-75
2023/03/28 01:52:16;;;;;;;2.17;2.08;;;;;;;-2.12;100.00;102040.03;6141778;23;20429;-77
2023/03/28 01:55:04;;;;;;;2.28;2.17;;;;;;;-1.50;100.00;102114.22;6148896;23;20437;-76
2023/03/28 01:58:00;;;;;;;2.40;2.30;;;;;;;-1.46;100.00;102113.44;6146671;23;20025;-75
2023/03/28 02:00:32;;;;;;;2.50;2.40;;;;;;;-1.66;100.00;102071.00;6149438;23;20415;-76
2023/03/28 02:03:10;;;;;;;2.20;2.10;;;;;;;-1.54;100.00;102086.69;6140746;23;20032;-76
2023/03/28 02:05:39;;;;;;;2.35;2.25;;;;;;;-1.51;100.00;102091.03;6155207;23;20376;-75
2023/03/28 02:08:09;;;;;;;2.40;2.30;;;;;;;-1.47;100.00;102092.81;6117841;23;20025;-76
2023/03/28 02:10:40;;;;;;;2.50;2.40;;;;;;;-1.57;100.00;102067.72;6147121;23;20033;-75
2023/03/28 02:13:20;;;;;;;2.20;2.10;;;;;;;-1.26;100.00;102115.56;6142441;23;20097;-76
2023/03/28 02:15:53;;;;;;;3.47;3.17;;;;;;;-1.68;100.00;102080.41;6156193;23;20024;-75
2023/03/28 02:18:28;;;;;;;3.55;2.35;;;;;;;-1.79;100.00;102043.25;6142765;23;20030;-75
2023/03/28 02:21:00;;;;;;;2.50;2.40;;;;;;;-2.17;100.00;101974.75;6150142;23;20048;-75
2023/03/28 02:23:35;;;;;;;2.40;2.30;;;;;;;-1.89;100.00;102027.63;6147023;23;20037;-76
2023/03/28 02:26:02;;;;;;;2.83;2.65;;;;;;;-2.21;100.00;101963.53;6156125;23;20450;-75
2023/03/28 02:28:31;;;;;;;2.45;2.35;;;;;;;-1.55;100.00;102095.22;6115905;23;20037;-75
2023/03/28 02:30:57;;;;;;;2.50;2.40;;;;;;;-1.61;100.00;102065.09;6147205;23;20036;-75
2023/03/28 02:33:39;;;;;;;8.68;3.00;;;;;;;-1.44;100.00;102100.63;6089005;23;20261;-74
2023/03/28 02:36:29;;;;;;;15.88;3.10;;;;;;;-1.46;100.00;102100.56;6154460;23;20547;-75
2023/03/28 02:39:17;;;;;;;2.50;2.40;;;;;;;-1.54;100.00;102104.72;6112616;23;20029;-74
2023/03/28 02:42:02;;;;;;;2.20;2.10;;;;;;;-1.62;100.00;102096.81;6149053;23;20077;-75
2023/03/28 02:44:56;;;;;;;3.00;2.60;;;;;;;-1.65;100.00;102099.31;6144174;23;20504;-76
2023/03/28 02:47:37;;;;;;;2.47;2.38;;;;;;;-1.68;100.00;102094.13;6082661;23;20063;-77
2023/03/28 02:50:24;;;;;;;12.05;2.75;;;;;;;-1.75;100.00;102097.41;6144234;23;20203;-77
2023/03/28 02:53:01;;;;;;;2.83;2.72;;;;;;;-1.77;100.00;102100.78;6113156;23;20232;-75
2023/03/28 02:55:55;;;;;;;2.70;2.53;;;;;;;-1.81;100.00;102099.84;6114240;23;20246;-74
2023/03/28 02:58:28;;;;;;;2.30;2.20;;;;;;;-1.84;100.00;102097.22;6122011;23;20088;-76
2023/03/28 03:00:55;;;;;;;2.38;2.28;;;;;;;-1.89;100.00;102103.94;6117066;23;20061;-76
2023/03/28 03:03:22;;;;;;;4.43;4.18;;;;;;;-1.92;100.00;102096.19;6142588;23;20028;-75
2023/03/28 03:05:49;;;;;;;2.50;2.40;;;;;;;-2.80;100.00;101952.81;6115582;23;20577;-75
2023/03/28 03:08:15;;;;;;;2.55;2.45;;;;;;;-2.00;100.00;102088.28;6123093;23;20028;-76
2023/03/28 03:10:42;;;;;;;2.17;2.08;;;;;;;-3.07;100.00;101920.50;6143132;23;20130;-75
2023/03/28 03:13:08;;;;;;;2.35;2.25;;;;;;;-2.09;100.00;102104.38;6153657;23;20782;-76
2023/03/28 03:15:35;;;;;;;2.22;2.13;;;;;;;-3.27;100.00;101907.22;6141534;23;22616;-74
2023/03/28 03:18:03;;;;;;;2.47;2.38;;;;;;;-2.62;100.00;102019.19;6117975;23;20496;-74
2023/03/28 03:20:32;;;;;;;2.55;2.45;;;;;;;-2.76;100.00;102010.28;6139400;23;20028;-74
2023/03/28 03:23:00;;;;;;;2.47;2.38;;;;;;;-2.29;100.00;102098.78;6147269;23;20025;-74
2023/03/28 03:25:27;;;;;;;2.83;2.70;;;;;;;-2.72;100.00;102041.22;6110051;23;20085;-75
2023/03/28 03:27:53;;;;;;;3.50;3.20;;;;;;;-2.96;100.00;101995.25;6114703;23;20245;-75
2023/03/28 03:30:20;;;;;;;2.28;2.17;;;;;;;-2.39;100.00;102101.09;6151562;23;20013;-75
2023/03/28 03:32:46;;;;;;;2.63;2.53;;;;;;;-3.07;100.00;101994.97;6140259;23;20017;-76
2023/03/28 03:35:13;;;;;;;2.33;2.22;;;;;;;-2.54;100.00;102079.34;6154596;23;20223;-74
2023/03/28 03:37:40;;;;;;;2.40;2.30;;;;;;;-2.66;100.00;102077.34;6094453;23;20029;-76
2023/03/28 03:40:08;;;;;;;3.35;3.05;;;;;;;-2.45;100.00;102107.81;6159601;23;20027;-75
2023/03/28 03:42:35;;;;;;;2.47;2.38;;;;;;;-2.76;100.00;102046.25;6143552;23;20044;-74
2023/03/28 03:45:03;;;;;;;2.30;2.20;;;;;;;-2.32;100.00;102105.56;6148799;23;20083;-74
2023/03/28 03:47:29;;;;;;;2.95;2.85;;;;;;;-3.08;100.00;101975.28;6141024;23;20084;-75
2023/03/28 03:49:56;;;;;;;2.30;2.20;;;;;;;-2.63;100.00;102050.84;6149711;23;20087;-76
2023/03/28 03:52:22;;;;;;;3.55;3.35;;;;;;;-2.86;100.00;101989.50;6141864;23;20029;-74
2023/03/28 03:54:48;;;;;;;2.42;2.33;;;;;;;-2.78;100.00;102004.25;6146705;23;20204;-76
2023/03/28 03:57:16;;;;;;;2.30;2.20;;;;;;;-2.62;100.00;102029.47;6114654;23;20193;-74
2023/03/28 03:59:42;;;;;;;2.90;2.80;;;;;;;-3.76;100.00;101856.38;6113810;23;20057;-74
2023/03/28 04:02:09;;;;;;;2.10;2.00;;;;;;;-3.16;100.00;101960.53;6158465;23;20435;-74
2023/03/28 04:04:36;;;;;;;2.33;2.22;;;;;;;-2.84;100.00;102010.09;6122484;23;20035;-77
2023/03/28 04:07:02;;;;;;;2.60;2.50;;;;;;;-2.36;100.00;102083.19;6153336;23;20023;-74
2023/03/28 04:09:28;;;;;;;2.63;2.53;;;;;;;-2.81;100.00;102021.31;6143607;23;22242;-75
2023/03/28 04:11:55;;;;;;;2.20;2.10;;;;;;;-2.71;100.00;102009.53;6112170;23;20013;-78
2023/03/28 04:14:22;;;;;;;2.58;2.47;;;;;;;-2.49;100.00;102044.31;6143539;23;20028;-75
2023/03/28 04:16:49;;;;;;;2.35;2.25;;;;;;;-2.13;100.00;102118.00;6156922;23;20210;-75
2023/03/28 04:19:17;;;;;;;3.22;3.05;;;;;;;-3.70;100.00;101831.75;6141413;23;20033;-75
2023/03/28 04:21:47;;;;;;;2.28;2.17;;;;;;;-2.13;100.00;102115.44;6114577;23;20488;-75
2023/03/28 04:24:19;;;;;;;2.40;2.30;;;;;;;-2.61;100.00;102051.75;6117948;23;20415;-76
2023/03/28 04:26:49;;;;;;;2.50;2.40;;;;;;;-2.88;100.00;102014.28;6145830;23;20404;-76
2023/03/28 04:29:16;;;;;;;2.40;2.30;;;;;;;-2.67;100.00;102043.91;6134535;23;20032;-77
2023/03/28 04:31:48;;;;;;;2.38;2.28;;;;;;;-2.52;100.00;102089.66;6121040;23;20028;-75
2023/03/28 04:34:18;;;;;;;2.35;2.25;;;;;;;-2.95;100.00;102012.38;6154623;23;20020;-75
2023/03/28 04:36:45;;;;;;;2.10;2.00;;;;;;;-2.93;100.00;102027.84;6140299;23;20080;-76
2023/03/28 04:39:12;;;;;;;2.28;2.17;;;;;;;-2.94;100.00;102032.13;6116475;23;20018;-78
2023/03/28 04:41:38;;;;;;;2.25;2.15;;;;;;;-3.14;100.00;102035.91;6145366;23;20479;-76
2023/03/28 04:44:05;;;;;;;2.72;2.63;;;;;;;-2.52;100.00;102113.66;6121739;23;20451;-75
2023/03/28 04:46:32;;;;;;;2.78;2.63;;;;;;;-2.55;100.00;102110.13;6115119;23;20018;-77
2023/03/28 04:48:58;;;;;;;2.38;2.28;;;;;;;-2.57;100.00;102158.06;6124439;23;20028;-74
2023/03/28 04:51:27;;;;;;;2.92;2.83;;;;;;;-2.77;100.00;102077.91;6143004;23;20028;-75
2023/03/28 04:53:53;;;;;;;2.30;2.20;;;;;;;-2.63;100.00;102109.94;6158448;23;20471;-75
2023/03/28 04:56:21;;;;;;;2.30;2.20;;;;;;;-3.08;100.00;102048.88;6142487;23;20018;-75
2023/03/28 04:58:47;;;;;;;2.40;2.30;;;;;;;-3.33;100.00;102012.28;6155144;23;20021;-74
2023/03/28 05:01:14;;;;;;;2.50;2.40;;;;;;;-2.68;100.00;102129.53;6140066;23;20088;-74
2023/03/28 05:03:41;;;;;;;2.28;2.17;;;;;;;-3.37;100.00;102013.03;6143369;23;20167;-73
2023/03/28 05:06:08;;;;;;;2.20;2.10;;;;;;;-3.67;100.00;101967.81;6095550;23;20045;-76
2023/03/28 05:08:34;;;;;;;3.10;3.00;;;;;;;-2.92;100.00;102102.38;6149936;23;20257;-75
2023/03/28 05:11:01;;;;;;;2.20;2.10;;;;;;;-2.93;100.00;102081.78;6120570;23;20157;-75
2023/03/28 05:13:28;;;;;;;2.50;2.40;;;;;;;-3.29;100.00;102021.81;6127881;23;20036;-75
2023/03/28 05:15:54;;;;;;;2.30;2.20;;;;;;;-2.75;100.00;102095.09;6142156;23;20028;-74
2023/03/28 05:18:21;;;;;;;2.95;2.75;;;;;;;-3.03;100.00;102049.84;6125009;23;20009;-76
2023/03/28 05:20:47;;;;;;;2.40;2.30;;;;;;;-2.59;100.00;102106.63;6145909;23;20025;-73
2023/03/28 05:23:14;;;;;;;3.33;3.13;;;;;;;-2.89;100.00;102066.47;6112316;23;20033;-75
2023/03/28 05:25:40;;;;;;;2.97;2.88;;;;;;;-2.69;100.00;102089.25;6141830;23;20560;-74
2023/03/28 05:28:06;;;;;;;11.05;2.50;;;;;;;-2.83;100.00;102074.38;6150891;23;20099;-73
2023/03/28 05:30:33;;;;;;;2.60;2.50;;;;;;;-3.22;100.00;101987.78;6142623;23;20021;-74
2023/03/28 05:33:00;;;;;;;2.97;2.88;;;;;;;-2.32;100.00;102133.84;6150601;23;20346;-74
2023/03/28 05:35:26;;;;;;;3.08;2.95;;;;;;;-2.81;100.00;102057.28;6139277;23;20032;-74
2023/03/28 05:40:20;;;;;;;4.40;3.00;;;;;;;-2.62;100.00;102094.56;6110978;23;20021;-71
2023/03/28 05:42:47;;;;;;;2.40;2.30;;;;;;;-2.35;100.00;102139.75;6114085;23;20038;-71
2023/03/28 05:45:14;;;;;;;2.97;2.88;;;;;;;-2.59;100.00;102116.91;6113031;23;20036;-71
2023/03/28 05:47:40;;;;;;;2.83;2.63;;;;;;;-3.78;100.00;101896.53;6110479;23;20526;-69
2023/03/28 05:50:09;;;;;;;2.92;2.72;;;;;;;-2.27;100.00;102142.53;6114546;23;20025;-72
2023/03/28 05:52:36;;;;;;;2.70;2.60;;;;;;;-2.21;100.00;102147.81;6112147;23;20447;-69
2023/03/28 05:55:02;;;;;;;2.60;2.50;;;;;;;-2.16;100.00;102141.09;6110157;23;20276;-69
2023/03/28 05:57:29;;;;;;;3.33;3.15;;;;;;;-2.10;100.00;102148.09;6108715;23;20020;-72
2023/03/28 05:59:56;;;;;;;2.42;2.33;;;;;;;-2.15;100.00;102132.53;6109833;23;20037;-72
2023/03/28 06:02:23;;;;;;;2.72;2.63;;;;;;;-2.56;100.00;102057.88;6116066;23;20029;-71
2023/03/28 06:04:52;;;;;;;3.78;3.47;;;;;;;-1.89;100.00;102151.13;6109882;23;20112;-71
2023/03/28 06:07:20;;;;;;;3.10;3.00;;;;;;;-3.17;100.00;101922.84;6107607;23;20017;-69
2023/03/28 06:09:57;;;;;;;2.65;2.50;;;;;;;-1.68;100.00;102165.34;6106840;23;20040;-72
2023/03/28 06:12:23;;;;;;;2.70;2.60;;;;;;;-1.72;100.00;102143.78;6107492;23;20044;-70
2023/03/28 06:14:49;;;;;;;3.17;2.80;;;;;;;-1.51;100.00;102173.41;6117026;23;20049;-69
2023/03/28 06:17:22;;;;;;;17.55;16.67;;;;;;;-1.59;100.00;102150.06;6079356;23;21041;-68
2023/03/28 06:19:49;;;;;;;2.75;2.65;;;;;;;-1.46;100.00;102157.22;6037865;18;20492;-71
2023/03/28 06:22:16;;;;;;;2.40;2.30;;;;;;;-1.74;100.00;102153.19;6080511;23;20182;-71
2023/03/28 06:24:42;;;;;;;2.83;2.60;;;;;;;-1.16;100.00;102188.72;6079884;23;20037;-70
2023/03/28 06:27:09;;;;;;;2.85;2.72;;;;;;;-1.26;100.00;102173.09;6060875;23;20221;-71
2023/03/28 06:29:35;;;;;;;3.15;2.95;;;;;;;-0.99;100.00;102189.91;6076390;23;20095;-72
2023/03/28 06:32:03;;;;;;;9.77;2.80;;;;;;;-0.89;100.00;102184.09;6100745;23;20248;-71
2023/03/28 06:34:29;;;;;;;3.08;2.97;;;;;;;-0.78;100.00;102202.38;6074711;23;20018;-71
2023/03/28 06:36:56;;;;;;;3.65;3.22;;;;;;;-0.66;100.00;102196.53;6077334;23;20028;-72
2023/03/28 06:39:22;;;;;;;3.08;2.97;;;;;;;-0.53;100.00;102206.25;6072893;23;20029;-71
2023/03/28 06:41:49;;;;;;;2.85;2.72;;;;;;;-0.71;100.00;102174.97;6056306;23;20062;-70
2023/03/28 06:44:16;;;;;;;3.50;3.22;;;;;;;-1.03;100.00;102080.78;6097939;23;20440;-71
2023/03/28 06:46:42;;;;;;;2.60;2.50;;;;;;;-0.18;100.00;102203.41;6052405;23;20018;-70
2023/03/28 06:49:09;;;;;;;2.63;2.53;;;;;;;-0.67;100.00;102104.59;6078848;23;20490;-69
2023/03/28 06:51:35;;;;;;;13.60;3.70;;;;;;;-0.36;100.00;102147.22;6080353;23;20109;-70
2023/03/28 06:54:02;;;;;;;3.78;3.47;;;;;;;-0.08;100.00;102168.28;6079797;23;20029;-70
2023/03/28 06:56:28;;;;;;;3.45;3.17;;;;;;;0.23;100.00;102189.41;6078507;23;20056;-70
2023/03/28 06:58:55;;;;;;;6.85;3.30;;;;;;;0.30;100.00;102181.78;6078169;23;20104;-71
2023/03/28 07:01:21;;;;;;;2.55;2.45;;;;;;;0.37;100.00;102162.06;6076418;23;20524;-70
2023/03/28 07:03:50;;;;;;;2.60;2.50;;;;;;;0.47;100.00;102166.50;6077287;23;20100;-70
2023/03/28 07:06:18;;;;;;;3.58;3.30;;;;;;;0.49;100.00;102130.38;6079089;23;20533;-70
2023/03/28 07:08:44;;;;;;;3.20;3.10;;;;;;;-0.28;100.00;101979.66;6066583;23;20456;-69
2023/03/28 07:11:10;;;;;;;11.05;3.38;;;;;;;1.07;100.00;102192.22;6076388;23;20380;-70
2023/03/28 07:13:37;;;;;;;2.90;2.80;;;;;;;1.30;100.00;102187.28;6082324;23;20056;-69
2023/03/28 07:16:07;;;;;;;18.73;3.63;;;;;;;1.50;100.00;102196.09;6076184;23;20030;-69
2023/03/28 07:18:34;;;;;;;3.40;3.20;;;;;;;1.66;100.00;102198.81;6075572;23;20034;-71
2023/03/28 07:21:11;;;;;;;4.75;3.22;;;;;;;1.41;100.00;102125.31;6078467;23;20076;-72
2023/03/28 07:23:38;;;;;;;3.70;3.50;;;;;;;1.86;100.00;102162.75;6078687;23;20040;-70
2023/03/28 07:26:07;;;;;;;3.33;2.83;;;;;;;2.18;100.00;102196.66;6082242;23;20066;-72
2023/03/28 07:28:35;;;;;;;3.30;3.20;;;;;;;2.15;100.00;102175.91;6081512;23;20033;-70
2023/03/28 07:31:03;;;;;;;2.83;2.72;;;;;;;2.35;100.00;102168.28;6062781;23;20022;-70
2023/03/28 07:33:34;;;;;;;3.30;3.15;;;;;;;2.75;100.00;102190.06;6082371;23;20508;-71
2023/03/28 07:36:09;;;;;;;3.58;3.38;;;;;;;2.54;100.00;102138.97;6080193;23;20029;-70
2023/03/28 07:38:36;;;;;;;4.10;3.65;;;;;;;3.19;100.00;102202.31;6077313;23;20507;-70
2023/03/28 07:41:02;;;;;;;3.25;3.05;;;;;;;2.87;100.00;102124.44;6075876;23;20042;-71
2023/03/28 07:43:29;;;;;;;4.32;4.03;;;;;;;3.32;100.00;102163.41;6055197;23;20246;-71
2023/03/28 07:46:01;;;;;;;4.15;3.85;;;;;;;3.09;100.00;102082.97;6079385;23;20057;-71
2023/03/28 07:48:28;;;;;;;3.63;3.43;;;;;;;3.69;100.00;102158.25;6074793;23;20472;-72
2023/03/28 07:50:55;;;;;;;3.00;2.90;;;;;;;3.67;100.00;102106.34;6083348;23;20342;-72
2023/03/28 07:53:22;;;;;;;4.88;3.92;;;;;;;3.92;100.00;102125.34;6081048;23;20114;-70
2023/03/28 07:55:48;;;;;;;3.17;3.08;;;;;;;3.83;100.00;102094.22;6080270;23;20036;-72
2023/03/28 07:58:21;;;;;;;;;;;;;;;4.09;100.00;102104.53;6056487;23;20468;-71
2023/03/28 08:00:47;;;;;;;3.55;3.35;;;;;;;4.16;97.78;102098.44;6075534;23;20140;-70
2023/03/28 08:03:15;;;;;;;5.82;4.13;;;;;;;3.85;96.41;102037.94;6079311;23;20064;-72
2023/03/28 08:05:50;;;;;;;8.02;3.88;;;;;;;4.09;95.01;102041.31;6072024;23;20250;-72
2023/03/28 08:08:18;;;;;;;3.28;3.17;;;;;;;4.42;94.56;102084.50;6109145;23;20358;-71
2023/03/28 08:10:49;;;;;;;4.13;3.83;;;;;;;4.85;94.20;102120.69;6081494;23;20092;-72
2023/03/28 08:13:17;;;;;;;3.85;3.55;;;;;;;4.74;93.08;102065.25;6080132;23;20021;-73
2023/03/28 08:15:43;;;;;;;3.78;3.58;;;;;;;4.63;89.93;102035.84;6085452;23;20030;-72
2023/03/28 08:18:11;;;;;;;3.38;3.28;;;;;;;4.69;88.09;102025.41;6081946;23;20018;-71
2023/03/28 08:20:38;;;;;;;5.38;4.10;;;;;;;4.86;86.00;102022.72;6077794;23;20571;-72
2023/03/28 08:23:04;;;;;;;4.03;3.75;;;;;;;4.82;86.00;101977.66;6075154;23;20334;-72
2023/03/28 08:25:31;;;;;;;3.92;3.72;;;;;;;4.62;82.64;101961.34;6077012;23;20030;-73
2023/03/28 08:27:58;;;;;;;4.28;3.88;;;;;;;4.96;82.25;102004.41;6074010;23;20209;-71
2023/03/28 08:30:24;;;;;;;6.07;3.90;;;;;;;4.02;81.76;101840.47;6078113;23;20072;-71
2023/03/28 08:32:51;;;;;;;3.60;3.30;;;;;;;4.59;82.13;101977.81;6082401;23;20058;-71
2023/03/28 08:35:18;;;;;;;3.30;3.20;;;;;;;4.58;82.70;101950.09;6081061;23;20091;-71
2023/03/28 08:37:44;;;;;;;3.72;3.53;;;;;;;5.07;82.61;102000.84;6081011;23;20222;-73
2023/03/28 08:40:17;;;;;;;9.60;4.38;;;;;;;4.99;82.22;101943.69;6076606;23;20030;-70
2023/03/28 08:43:18;;;;;;;3.42;3.25;;;;;;;5.39;78.79;101962.41;6084039;23;20033;-72
2023/03/28 08:45:50;;;;;;;3.33;3.22;;;;;;;5.48;75.75;101914.56;6078954;23;20024;-72
2023/03/28 08:48:22;;;;;;;3.30;3.20;;;;;;;5.59;73.40;101867.56;6078878;23;20136;-73
2023/03/28 08:51:24;;;;;;;3.35;3.15;;;;;;;5.85;71.27;101835.94;6083053;23;20033;-72
2023/03/28 08:54:26;;;;;;;5.03;3.95;;;;;;;5.89;68.38;101779.47;5968202;23;20031;-72
2023/03/28 08:56:59;;;;;;;4.53;4.20;;;;;;;5.16;66.78;101646.88;6069025;23;20196;-73
2023/03/28 08:59:39;;;;;;;3.55;3.45;;;;;;;5.66;67.84;101699.94;6083031;23;20038;-71
2023/03/28 09:02:28;;;;;;;3.45;3.35;;;;;;;5.64;66.36;101688.69;6096607;23;20429;-72
2023/03/28 09:04:57;;;;;;;3.85;3.55;;;;;;;5.29;65.95;101624.13;6081766;23;20030;-72
2023/03/28 09:07:54;;;;;;;3.60;3.40;;;;;;;5.78;64.60;101671.09;6076979;23;20017;-72
2023/03/28 09:10:53;;;;;;;4.40;4.05;;;;;;;5.98;65.07;101681.19;6086715;23;20500;-72
2023/03/28 09:13:43;;;;;;;3.75;3.55;;;;;;;3.88;64.99;101302.19;6052217;23;20030;-71
2023/03/28 09:16:43;;;;;;;7.47;4.65;;;;;;;6.52;65.09;101723.69;6081052;23;20421;-72
2023/03/28 09:19:20;;;;;;;4.25;3.97;;;;;;;6.26;61.61;101576.44;6081025;23;20440;-73
2023/03/28 09:22:09;;;;;;;3.75;3.55;;;;;;;6.46;63.58;101635.16;6078581;23;20058;-71
2023/03/28 09:24:59;;;;;;;8.38;4.22;;;;;;;6.04;61.85;101492.63;6080321;23;20028;-71
2023/03/28 09:27:34;;;;;;;10.55;4.22;;;;;;;6.44;61.76;101543.06;6096622;23;20022;-73
2023/03/28 09:30:25;;;;;;;4.47;4.20;;;;;;;6.65;61.24;101550.41;6090860;23;20036;-71
2023/03/28 09:32:54;;;;;;;4.72;4.38;;;;;;;7.11;61.66;101567.63;6096865;23;20042;-72
2023/03/28 09:35:23;;;;;;;3.80;3.60;;;;;;;7.37;59.51;101532.19;6081401;23;20032;-71
2023/03/28 09:37:58;;;;;;;4.95;4.50;;;;;;;7.43;58.29;101486.78;6080412;23;20014;-73
2023/03/28 09:40:34;;;;;;;12.30;4.70;;;;;;;7.63;59.54;101544.56;6051431;23;20086;-71
2023/03/28 09:43:29;;;;;;;4.00;3.80;;;;;;;7.23;59.93;101471.63;6071746;23;20028;-72
2023/03/28 09:45:59;;;;;;;4.97;4.65;;;;;;;7.51;59.59;101509.16;6054562;23;20352;-71
2023/03/28 09:48:28;;;;;;;6.55;3.80;;;;;;;7.83;58.80;101524.91;6076220;23;20130;-71
2023/03/28 09:50:57;;;;;;;4.10;3.65;;;;;;;8.11;59.92;101567.66;6078086;23;20037;-71
2023/03/28 09:53:29;;;;;;;4.45;4.25;;;;;;;7.46;58.89;101434.47;6075501;23;20341;-72
2023/03/28 09:56:07;;;;;;;8.48;4.03;;;;;;;8.12;58.02;101511.00;6082126;23;20393;-71
2023/03/28 09:58:53;;;;;;;4.03;3.83;;;;;;;8.04;54.28;101304.72;6092128;23;20030;-71
2023/03/28 10:01:45;;;;;;;4.10;3.90;;;;;;;8.21;53.33;101293.72;6079575;23;20281;-71
2023/03/28 10:04:18;;;;;;;3.95;3.65;;;;;;;8.21;53.15;101249.25;6077258;23;20091;-73
2023/03/28 10:06:45;;;;;;;;;;;;;;;8.51;51.88;101236.06;6077361;23;20355;-73
2023/03/28 10:09:22;;;;;;;4.85;4.50;;;;;;;8.29;51.23;101153.09;6079739;23;19910;-72
2023/03/28 10:11:58;;;;;;;3.72;3.58;;;;;;;8.43;51.17;101167.50;6078325;23;20037;-71
2023/03/28 10:14:45;;;;;;;3.72;3.63;;;;;;;8.72;50.99;101189.97;6081340;23;20381;-71
2023/03/28 10:17:14;;;;;;;3.72;3.53;;;;;;;8.68;50.85;101202.34;6076249;23;20026;-71
2023/03/28 10:19:43;;;;;;;4.80;4.50;;;;;;;8.82;51.21;101232.34;6052700;23;20177;-72
2023/03/28 10:22:14;;;;;;;3.85;3.65;;;;;;;8.81;51.41;101220.19;6084577;23;20030;-71
2023/03/28 10:24:41;;;;;;;4.93;4.13;;;;;;;8.77;51.75;101199.34;6119727;23;20065;-71
2023/03/28 10:27:22;;;;;;;4.28;3.97;;;;;;;9.01;50.46;101180.19;6066212;23;20021;-72
2023/03/28 10:29:52;;;;;;;4.88;4.38;;;;;;;8.92;51.00;101152.59;6078264;23;20085;-71
2023/03/28 10:32:30;;;;;;;4.18;3.97;;;;;;;8.98;49.89;101090.41;6087386;23;20025;-71
2023/03/28 10:35:17;;;;;;;4.40;4.10;;;;;;;9.04;48.41;101075.34;6102835;23;20091;-71
2023/03/28 10:37:47;;;;;;;4.20;4.00;;;;;;;9.38;47.25;101039.03;6074684;23;20021;-71
2023/03/28 10:40:19;;;;;;;4.10;3.90;;;;;;;9.77;48.11;101095.06;6079467;23;20017;-72
2023/03/28 10:42:49;;;;;;;4.20;4.00;;;;;;;10.06;46.86;101082.44;6076507;23;20494;-72
2023/03/28 10:45:22;;;;;;;4.50;4.30;;;;;;;10.20;47.21;101108.91;6073655;23;20053;-71
2023/03/28 10:47:51;;;;;;;4.82;4.60;;;;;;;10.03;45.53;100964.59;6051046;23;20018;-71
2023/03/28 10:50:24;;;;;;;4.10;3.90;;;;;;;10.01;45.89;100956.81;6074190;23;20037;-72
2023/03/28 10:53:23;;;;;;;4.50;4.20;;;;;;;9.92;45.59;100952.84;6057617;23;20037;-71
2023/03/28 10:56:09;;;;;;;5.82;5.18;;;;;;;10.08;47.05;101036.03;6075695;23;20031;-71
2023/03/28 10:58:54;;;;;;;4.65;4.30;;;;;;;10.13;46.62;101000.81;6048066;23;20030;-71
2023/03/28 11:01:26;;;;;;;4.20;4.00;;;;;;;9.40;45.59;100871.31;6095742;23;20006;-70
2023/03/28 11:04:18;;;;;;;4.20;4.00;;;;;;;9.39;46.71;100940.34;6058685;23;20030;-71
2023/03/28 11:06:59;;;;;;;4.03;3.83;;;;;;;8.73;46.10;100794.81;6077687;23;20033;-72
2023/03/28 11:09:39;;;;;;;4.15;3.95;;;;;;;8.63;45.36;100740.34;6058609;23;20055;-71
2023/03/28 11:12:22;;;;;;;5.00;4.70;;;;;;;10.10;45.83;100974.75;6071537;23;20105;-71
2023/03/28 11:15:12;;;;;;;4.40;4.20;;;;;;;10.25;45.82;100981.06;6048329;23;20037;-72
2023/03/28 11:17:51;;;;;;;;;;;;;;;10.33;44.54;100923.03;6099045;23;20364;-71
2023/03/28 11:20:27;;;;;;;4.63;4.43;;;;;;;9.90;44.21;100822.72;6074246;23;19925;-72
2023/03/28 11:23:36;;;;;;;4.25;4.05;;;;;;;9.57;45.61;100841.75;6076951;23;20100;-71
2023/03/28 11:26:24;;;;;;;4.05;3.85;;;;;;;8.62;44.74;100629.63;6078414;23;20046;-72
2023/03/28 11:29:13;;;;;;;4.60;4.30;;;;;;;9.91;45.78;100896.06;6071205;23;20021;-71
2023/03/28 11:31:52;;;;;;;4.40;4.20;;;;;;;9.70;45.38;100879.56;6075529;23;20030;-71
2023/03/28 11:34:24;;;;;;;4.50;4.20;;;;;;;9.90;45.76;100899.63;6081308;23;20041;-72
2023/03/28 11:37:02;;;;;;;4.05;3.85;;;;;;;9.10;44.94;100701.59;6079178;23;20089;-71
2023/03/28 11:40:00;;;;;;;4.60;4.40;;;;;;;9.94;44.22;100783.22;6077787;23;20035;-72
2023/03/28 11:42:35;;;;;;;4.30;4.10;;;;;;;10.08;45.66;100910.16;6070831;23;20499;-71
2023/03/28 11:45:24;;;;;;;4.40;4.10;;;;;;;10.32;44.99;100902.94;6079258;23;20020;-72
2023/03/28 11:48:30;;;;;;;4.30;4.05;;;;;;;9.84;44.87;100829.09;6074442;23;20097;-70
2023/03/28 11:51:04;;;;;;;4.20;4.00;;;;;;;10.62;42.70;100810.53;6107100;23;20055;-72
2023/03/28 11:53:41;;;;;;;4.85;4.55;;;;;;;10.36;41.81;100758.47;6078620;23;20093;-72